Time;durP1;ratioP1;P1;durP2;ratioP2;P2;SDS_P1;SDS_P2;PMS_P1;PMS_P2;Temp;Humidity;BMP_temperature;BMP_pressure;BME280_temperature;BME280_humidity;BME280_pressure;Samples;Min_cycle;Max_cycle;Signal;HPM_P1;HPM_P2
2022/08/11 00:01:28;;;;;;;0.00;0.00;;;;;;;;;;5114027;28;20115;-83
2022/08/11 00:03:55;;;;;;;0.00;0.00;;;;;;;;;;5113690;28;20127;-83
2022/08/11 00:06:40;;;;;;;0.10;0.10;;;;;;;;;;5097170;28;20040;-83
2022/08/11 00:09:15;;;;;;;0.00;0.00;;;;;;;;;;5096576;28;20380;-84
2022/08/11 00:11:46;;;;;;;0.00;0.00;;;;;;;;;;5113720;28;20463;-84
2022/08/11 00:14:17;;;;;;;0.00;0.00;;;;;;;;;;5112563;28;20093;-84
2022/08/11 00:16:52;;;;;;;0.00;0.00;;;;;;;;;;5113666;28;20123;-84
2022/08/11 00:19:29;;;;;;;0.00;0.00;;;;;;;;;;5113479;28;20081;-84
2022/08/11 00:21:55;;;;;;;0.00;0.00;;;;;;;;;;5113674;28;20040;-84
2022/08/11 00:24:22;;;;;;;0.00;0.00;;;;;;;;;;5113439;28;20047;-84
2022/08/11 00:26:52;;;;;;;0.00;0.00;;;;;;;;;;5096741;28;20039;-84
2022/08/11 00:29:19;;;;;;;0.00;0.00;;;;;;;;;;5096416;28;20082;-83
2022/08/11 00:31:49;;;;;;;0.00;0.00;;;;;;;;;;5113387;28;20046;-83
2022/08/11 00:34:18;;;;;;;0.00;0.00;;;;;;;;;;5113003;28;20046;-85
2022/08/11 00:36:55;;;;;;;0.00;0.00;;;;;;;;;;5113204;28;20455;-84
2022/08/11 00:39:23;;;;;;;0.00;0.00;;;;;;;;;;5113086;28;20186;-84
2022/08/11 00:41:49;;;;;;;0.00;0.00;;;;;;;;;;5113093;28;20032;-83
2022/08/11 00:44:21;;;;;;;0.00;0.00;;;;;;;;;;5095967;28;20047;-83
2022/08/11 00:46:57;;;;;;;0.00;0.00;;;;;;;;;;5096019;28;20035;-83
2022/08/11 00:49:30;;;;;;;0.00;0.00;;;;;;;;;;5095937;28;20047;-83
2022/08/11 00:52:15;;;;;;;0.00;0.00;;;;;;;;;;5113137;28;20406;-83
2022/08/11 00:55:00;;;;;;;0.00;0.00;;;;;;;;;;5095830;28;20051;-83
2022/08/11 00:57:43;;;;;;;0.00;0.00;;;;;;;;;;5113369;28;20043;-83
2022/08/11 01:00:16;;;;;;;0.00;0.00;;;;;;;;;;5095790;28;20123;-83
2022/08/11 01:02:54;;;;;;;0.00;0.00;;;;;;;;;;5113152;28;20058;-83
2022/08/11 01:05:39;;;;;;;0.00;0.00;;;;;;;;;;5112697;28;20031;-83
2022/08/11 01:08:14;;;;;;;0.00;0.00;;;;;;;;;;5112849;28;20074;-83
2022/08/11 01:10:58;;;;;;;0.00;0.00;;;;;;;;;;5095444;28;20498;-83
2022/08/11 01:13:45;;;;;;;0.00;0.00;;;;;;;;;;5095983;28;20073;-83
2022/08/11 01:16:30;;;;;;;0.00;0.00;;;;;;;;;;5112728;28;20050;-84
2022/08/11 01:19:15;;;;;;;0.00;0.00;;;;;;;;;;5112812;28;20058;-83
2022/08/11 01:21:53;;;;;;;0.00;0.00;;;;;;;;;;5095518;28;20058;-83
2022/08/11 01:24:38;;;;;;;0.00;0.00;;;;;;;;;;5112367;28;20126;-83
2022/08/11 01:27:04;;;;;;;0.05;0.05;;;;;;;;;;5112481;28;20046;-83
2022/08/11 01:29:49;;;;;;;0.00;0.00;;;;;;;;;;5112205;28;20450;-83
2022/08/11 01:32:15;;;;;;;0.00;0.00;;;;;;;;;;5112319;28;20042;-83
2022/08/11 01:35:00;;;;;;;0.00;0.00;;;;;;;;;;5112171;28;20035;-83
2022/08/11 01:37:36;;;;;;;0.00;0.00;;;;;;;;;;5112491;28;20544;-83
2022/08/11 01:40:14;;;;;;;0.00;0.00;;;;;;;;;;5112166;28;20100;-83
2022/08/11 01:45:44;;;;;;;0.00;0.00;;;;;;;;;;5112104;28;20039;-83
2022/08/11 01:48:14;;;;;;;0.00;0.00;;;;;;;;;;5112533;28;20051;-84
2022/08/11 01:50:52;;;;;;;0.00;0.00;;;;;;;;;;5112742;28;20044;-83
2022/08/11 01:53:37;;;;;;;0.00;0.00;;;;;;;;;;5112289;28;20040;-84
2022/08/11 01:56:09;;;;;;;0.00;0.00;;;;;;;;;;5112456;28;20035;-83
2022/08/11 01:58:42;;;;;;;0.00;0.00;;;;;;;;;;5112113;28;20042;-84
2022/08/11 02:01:15;;;;;;;0.00;0.00;;;;;;;;;;5094883;28;20321;-84
2022/08/11 02:03:46;;;;;;;0.10;0.00;;;;;;;;;;5094878;28;20073;-84
2022/08/11 02:09:23;;;;;;;0.00;0.00;;;;;;;;;;5111757;28;20044;-83
2022/08/11 02:11:50;;;;;;;0.00;0.00;;;;;;;;;;5065422;28;20051;-84
2022/08/11 02:14:45;;;;;;;0.00;0.00;;;;;;;;;;5094507;28;20043;-84
2022/08/11 02:17:17;;;;;;;0.00;0.00;;;;;;;;;;5091968;28;20134;-84
2022/08/11 02:25:22;;;;;;;0.00;0.00;;;;;;;;;;5111394;28;20483;-84
2022/08/11 02:28:09;;;;;;;0.00;0.00;;;;;;;;;;5111500;28;20039;-84
2022/08/11 02:30:38;;;;;;;0.00;0.00;;;;;;;;;;5111309;28;20494;-83
2022/08/11 02:33:23;;;;;;;0.00;0.00;;;;;;;;;;5111501;28;20086;-83
2022/08/11 02:35:55;;;;;;;0.00;0.00;;;;;;;;;;5110675;28;20500;-84
2022/08/11 02:38:42;;;;;;;0.10;0.00;;;;;;;;;;5111419;28;20102;-84
2022/08/11 02:44:27;;;;;;;0.00;0.00;;;;;;;;;;5111123;28;20230;-84
2022/08/11 02:47:02;;;;;;;0.00;0.00;;;;;;;;;;5111296;28;20039;-84
2022/08/11 02:49:54;;;;;;;0.00;0.00;;;;;;;;;;5110949;28;20036;-83
2022/08/11 02:52:20;;;;;;;0.00;0.00;;;;;;;;;;5111162;28;20131;-83
2022/08/11 02:54:49;;;;;;;0.00;0.00;;;;;;;;;;5111016;28;20118;-84
2022/08/11 02:57:14;;;;;;;0.00;0.00;;;;;;;;;;5094101;28;20040;-83
2022/08/11 02:59:50;;;;;;;0.00;0.00;;;;;;;;;;5110916;28;20032;-83
2022/08/11 03:02:23;;;;;;;0.00;0.00;;;;;;;;;;5111109;28;20046;-84
2022/08/11 03:04:50;;;;;;;0.00;0.00;;;;;;;;;;5110920;28;20404;-84
2022/08/11 03:07:25;;;;;;;0.00;0.00;;;;;;;;;;5110966;28;20040;-84
2022/08/11 03:10:00;;;;;;;0.00;0.00;;;;;;;;;;5093724;28;20040;-84
2022/08/11 03:18:25;;;;;;;0.00;0.00;;;;;;;;;;5110953;28;20036;-83
2022/08/11 03:20:55;;;;;;;0.00;0.00;;;;;;;;;;5093707;28;20074;-83
2022/08/11 03:23:34;;;;;;;0.00;0.00;;;;;;;;;;5111014;28;20341;-83
2022/08/11 03:26:14;;;;;;;0.00;0.00;;;;;;;;;;5110629;28;20352;-83
2022/08/11 03:28:52;;;;;;;0.00;0.00;;;;;;;;;;5110902;28;20054;-83
2022/08/11 03:31:23;;;;;;;0.00;0.00;;;;;;;;;;5093436;28;20400;-83
2022/08/11 03:34:01;;;;;;;0.00;0.00;;;;;;;;;;5110716;28;20510;-83
2022/08/11 03:36:45;;;;;;;0.00;0.00;;;;;;;;;;5110590;28;20051;-84
2022/08/11 03:39:12;;;;;;;0.00;0.00;;;;;;;;;;5093676;28;20551;-83
2022/08/11 03:41:44;;;;;;;0.00;0.00;;;;;;;;;;5110450;28;20491;-84
2022/08/11 03:44:19;;;;;;;0.00;0.00;;;;;;;;;;5110871;28;20487;-84
2022/08/11 03:47:04;;;;;;;0.00;0.00;;;;;;;;;;5107539;28;20046;-83
2022/08/11 03:49:38;;;;;;;0.00;0.00;;;;;;;;;;5113065;28;20085;-84
2022/08/11 03:52:16;;;;;;;0.00;0.00;;;;;;;;;;5114518;28;20047;-84
2022/08/11 03:54:47;;;;;;;0.00;0.00;;;;;;;;;;5097075;28;20040;-84
2022/08/11 03:57:43;;;;;;;0.00;0.00;;;;;;;;;;5114139;28;20166;-84
2022/08/11 04:00:15;;;;;;;0.20;0.20;;;;;;;;;;5113873;28;20039;-84
2022/08/11 04:03:01;;;;;;;0.95;0.90;;;;;;;;;;5114052;28;20391;-83
2022/08/11 04:05:46;;;;;;;0.00;0.00;;;;;;;;;;5113743;28;20070;-83
2022/08/11 04:08:23;;;;;;;0.00;0.00;;;;;;;;;;5097010;28;20044;-84
2022/08/11 04:10:52;;;;;;;0.00;0.00;;;;;;;;;;5113369;28;20131;-84
2022/08/11 04:13:38;;;;;;;0.00;0.00;;;;;;;;;;5113840;28;20126;-84
2022/08/11 04:16:34;;;;;;;0.00;0.00;;;;;;;;;;5113326;28;20180;-84
2022/08/11 04:19:03;;;;;;;0.00;0.00;;;;;;;;;;5075795;28;20046;-84
2022/08/11 04:21:41;;;;;;;0.00;0.00;;;;;;;;;;5113497;28;20059;-83
2022/08/11 04:24:13;;;;;;;0.00;0.00;;;;;;;;;;5096719;28;20063;-84
2022/08/11 04:26:42;;;;;;;0.00;0.00;;;;;;;;;;5113378;28;20050;-84
2022/08/11 04:29:08;;;;;;;0.00;0.00;;;;;;;;;;5113565;28;20039;-84
2022/08/11 04:31:42;;;;;;;0.00;0.00;;;;;;;;;;5096256;28;20113;-84
2022/08/11 04:34:12;;;;;;;0.00;0.00;;;;;;;;;;5113485;28;20063;-84
2022/08/11 04:39:41;;;;;;;0.00;0.00;;;;;;;;;;5113694;28;20047;-84
2022/08/11 04:45:20;;;;;;;0.00;0.00;;;;;;;;;;5113179;28;20138;-84
2022/08/11 05:02:57;;;;;;;0.00;0.00;;;;;;;;;;5112892;28;20044;-85
2022/08/11 05:05:33;;;;;;;0.00;0.00;;;;;;;;;;5112717;28;20047;-85
2022/08/11 05:08:08;;;;;;;0.00;0.00;;;;;;;;;;5096095;28;20058;-85
2022/08/11 05:10:46;;;;;;;0.00;0.00;;;;;;;;;;5112168;28;20051;-85
2022/08/11 05:35:48;;;;;;;0.00;0.00;;;;;;;;;;5112085;28;20391;-84
2022/08/11 05:58:09;;;;;;;0.00;0.00;;;;;;;;;;5111984;28;20486;-85
2022/08/11 06:00:45;;;;;;;0.00;0.00;;;;;;;;;;5094788;28;20062;-86
2022/08/11 06:03:11;;;;;;;0.00;0.00;;;;;;;;;;5111763;28;20445;-86
2022/08/11 06:05:38;;;;;;;0.00;0.00;;;;;;;;;;5093273;28;20785;-85
2022/08/11 06:08:08;;;;;;;0.00;0.00;;;;;;;;;;5099459;28;20043;-85
2022/08/11 06:10:36;;;;;;;0.00;0.00;;;;;;;;;;5102537;28;20047;-86
2022/08/11 06:13:03;;;;;;;0.00;0.00;;;;;;;;;;5083353;28;20101;-87
2022/08/11 06:15:31;;;;;;;0.00;0.00;;;;;;;;;;5102858;28;20078;-86
2022/08/11 06:18:00;;;;;;;0.00;0.00;;;;;;;;;;5098420;28;20100;-86
2022/08/11 06:20:31;;;;;;;0.00;0.00;;;;;;;;;;5084431;28;20039;-87
2022/08/11 06:22:59;;;;;;;0.00;0.00;;;;;;;;;;5106709;28;20040;-87
2022/08/11 06:25:32;;;;;;;0.00;0.00;;;;;;;;;;5098823;28;20060;-86
2022/08/11 06:27:59;;;;;;;0.00;0.00;;;;;;;;;;5092076;28;20070;-86
2022/08/11 06:30:39;;;;;;;0.00;0.00;;;;;;;;;;5101113;28;20051;-87
2022/08/11 06:33:15;;;;;;;0.00;0.00;;;;;;;;;;5079525;28;20048;-85
2022/08/11 06:36:02;;;;;;;0.00;0.00;;;;;;;;;;5097495;28;20044;-86
2022/08/11 06:38:37;;;;;;;0.00;0.00;;;;;;;;;;5094893;28;20071;-86
2022/08/11 06:44:12;;;;;;;0.00;0.00;;;;;;;;;;5093565;28;20445;-86
2022/08/11 06:46:39;;;;;;;0.00;0.00;;;;;;;;;;5056525;28;20055;-86
2022/08/11 06:51:10;;;;;;;0.00;0.00;;;;;;;;;;5106186;28;20406;-87
2022/08/11 06:51:53;;;;;;;0.00;0.00;;;;;;;;;;5096793;28;20202;-85
2022/08/11 06:54:20;;;;;;;0.00;0.00;;;;;;;;;;5097151;28;20079;-86
2022/08/11 07:02:24;;;;;;;0.00;0.00;;;;;;;;;;5105751;28;20043;-85
2022/08/11 07:04:59;;;;;;;0.00;0.00;;;;;;;;;;5108118;28;20043;-86
2022/08/11 07:16:09;;;;;;;0.00;0.00;;;;;;;;;;5112985;28;20044;-88
2022/08/11 07:30:06;;;;;;;0.00;0.00;;;;;;;;;;5115255;28;20126;-88
2022/08/11 07:32:36;;;;;;;0.00;0.00;;;;;;;;;;5098165;28;20039;-87
2022/08/11 07:35:13;;;;;;;0.00;0.00;;;;;;;;;;5115053;28;20073;-88
2022/08/11 07:37:44;;;;;;;0.00;0.00;;;;;;;;;;5115080;28;20218;-86
2022/08/11 07:40:11;;;;;;;0.00;0.00;;;;;;;;;;5115321;28;20428;-88
2022/08/11 07:42:38;;;;;;;0.00;0.00;;;;;;;;;;5115246;28;20032;-89
2022/08/11 07:53:29;;;;;;;0.00;0.00;;;;;;;;;;5034111;28;20045;-87
2022/08/11 07:55:56;;;;;;;0.00;0.00;;;;;;;;;;5017196;28;20128;-87
2022/08/11 08:17:52;;;;;;;0.00;0.00;;;;;;;;;;5033159;28;20076;-85
2022/08/11 08:20:21;;;;;;;0.00;0.00;;;;;;;;;;5033256;28;20041;-85
2022/08/11 08:22:51;;;;;;;0.00;0.00;;;;;;;;;;5032994;28;20037;-88
2022/08/11 08:25:17;;;;;;;0.00;0.00;;;;;;;;;;5033491;28;20045;-85
2022/08/11 08:27:44;;;;;;;0.00;0.00;;;;;;;;;;5032906;28;20111;-86
2022/08/11 08:32:57;;;;;;;0.00;0.00;;;;;;;;;;5033281;28;20045;-85
2022/08/11 08:35:24;;;;;;;0.00;0.00;;;;;;;;;;5015610;28;20095;-87
2022/08/11 08:37:51;;;;;;;0.00;0.00;;;;;;;;;;5032923;28;20445;-86
2022/08/11 08:40:17;;;;;;;0.00;0.00;;;;;;;;;;5033069;28;20037;-86
2022/08/11 08:42:53;;;;;;;0.00;0.00;;;;;;;;;;5016093;28;20087;-85
2022/08/11 08:45:20;;;;;;;0.00;0.00;;;;;;;;;;5032991;28;20116;-85
2022/08/11 08:47:49;;;;;;;0.00;0.00;;;;;;;;;;5032428;28;20174;-85
2022/08/11 08:50:21;;;;;;;0.00;0.00;;;;;;;;;;5032478;28;20080;-85
2022/08/11 08:52:49;;;;;;;0.00;0.00;;;;;;;;;;5016171;28;20057;-87
2022/08/11 08:55:19;;;;;;;0.00;0.00;;;;;;;;;;5032656;28;20118;-86
2022/08/11 08:57:47;;;;;;;0.00;0.00;;;;;;;;;;5015973;28;20080;-89
2022/08/11 09:00:15;;;;;;;0.00;0.00;;;;;;;;;;5032420;28;20440;-85
2022/08/11 09:02:41;;;;;;;0.00;0.00;;;;;;;;;;5032326;28;20544;-87
2022/08/11 09:05:08;;;;;;;0.00;0.00;;;;;;;;;;5016265;28;20037;-87
2022/08/11 09:07:35;;;;;;;0.00;0.00;;;;;;;;;;5032438;28;20495;-87
2022/08/11 09:10:01;;;;;;;0.00;0.00;;;;;;;;;;5032356;28;20046;-87
2022/08/11 09:12:29;;;;;;;0.00;0.00;;;;;;;;;;5032360;28;20129;-86
2022/08/11 09:15:05;;;;;;;0.00;0.00;;;;;;;;;;5032028;28;20042;-86
2022/08/11 09:17:34;;;;;;;0.00;0.00;;;;;;;;;;5015832;28;20038;-89
2022/08/11 09:20:02;;;;;;;0.00;0.00;;;;;;;;;;5032407;28;20404;-85
2022/08/11 09:28:00;;;;;;;0.00;0.00;;;;;;;;;;5031901;28;20045;-85
2022/08/11 09:30:27;;;;;;;0.00;0.00;;;;;;;;;;5031930;28;20076;-85
2022/08/11 09:32:59;;;;;;;0.00;0.00;;;;;;;;;;5031669;28;20485;-86
2022/08/11 09:35:26;;;;;;;0.00;0.00;;;;;;;;;;5015307;28;20068;-85
2022/08/11 09:40:40;;;;;;;0.00;0.00;;;;;;;;;;5031874;28;20501;-86
2022/08/11 09:45:55;;;;;;;0.00;0.00;;;;;;;;;;5033192;28;20084;-87
2022/08/11 09:48:22;;;;;;;0.00;0.00;;;;;;;;;;5031750;28;20047;-85
2022/08/11 09:50:49;;;;;;;0.00;0.00;;;;;;;;;;5031465;28;20076;-86
2022/08/11 09:53:16;;;;;;;0.00;0.00;;;;;;;;;;5031994;28;20484;-87
2022/08/11 09:55:46;;;;;;;0.00;0.00;;;;;;;;;;5031769;28;20485;-86
2022/08/11 09:58:13;;;;;;;0.00;0.00;;;;;;;;;;5015012;28;20037;-86
2022/08/11 10:00:39;;;;;;;0.00;0.00;;;;;;;;;;5031642;28;20048;-86
2022/08/11 10:03:12;;;;;;;0.00;0.00;;;;;;;;;;5015345;28;20184;-86
2022/08/11 10:08:28;;;;;;;0.00;0.00;;;;;;;;;;5031622;28;20053;-86
2022/08/11 10:10:55;;;;;;;0.00;0.00;;;;;;;;;;5031694;28;20091;-86
2022/08/11 10:13:22;;;;;;;0.00;0.00;;;;;;;;;;5031468;28;20073;-86
2022/08/11 10:15:50;;;;;;;0.00;0.00;;;;;;;;;;5015558;28;20142;-85
2022/08/11 10:18:41;;;;;;;0.00;0.00;;;;;;;;;;5031562;28;20484;-85
2022/08/11 10:21:12;;;;;;;0.00;0.00;;;;;;;;;;5032107;28;20049;-86
2022/08/11 10:34:40;;;;;;;0.00;0.00;;;;;;;;;;5031127;28;20041;-86
2022/08/11 10:37:07;;;;;;;0.00;0.00;;;;;;;;;;5031084;28;20060;-85
2022/08/11 10:39:34;;;;;;;0.00;0.00;;;;;;;;;;5030856;28;20442;-85
2022/08/11 10:44:47;;;;;;;0.00;0.00;;;;;;;;;;5031296;28;20052;-82
2022/08/11 11:01:01;;;;;;;0.00;0.00;;;;;;;;;;5034821;28;19967;-86
2022/08/11 11:03:28;;;;;;;0.00;0.00;;;;;;;;;;5035274;28;20128;-86
2022/08/11 11:05:57;;;;;;;0.00;0.00;;;;;;;;;;5034730;28;20034;-86
2022/08/11 11:11:14;;;;;;;0.00;0.00;;;;;;;;;;5034961;28;20041;-87
2022/08/11 11:19:17;;;;;;;0.00;0.00;;;;;;;;;;5034431;28;20045;-84
2022/08/11 11:21:44;;;;;;;0.00;0.00;;;;;;;;;;5034689;28;20280;-85
2022/08/11 11:24:13;;;;;;;0.00;0.00;;;;;;;;;;5034661;28;20042;-86
2022/08/11 11:26:57;;;;;;;0.00;0.00;;;;;;;;;;5034477;28;20041;-86
2022/08/11 11:29:42;;;;;;;0.22;0.00;;;;;;;;;;5034789;28;20045;-86
2022/08/11 11:32:14;;;;;;;0.00;0.00;;;;;;;;;;5034540;28;20048;-86
2022/08/11 11:34:40;;;;;;;0.00;0.00;;;;;;;;;;5034349;28;20037;-85
2022/08/11 11:37:06;;;;;;;0.00;0.00;;;;;;;;;;5034319;28;20041;-85
2022/08/11 11:39:32;;;;;;;0.00;0.00;;;;;;;;;;5034190;28;20038;-85
2022/08/11 11:42:03;;;;;;;0.00;0.00;;;;;;;;;;5017900;28;20342;-87
2022/08/11 11:44:30;;;;;;;0.00;0.00;;;;;;;;;;5018121;28;20146;-85
2022/08/11 11:46:56;;;;;;;0.00;0.00;;;;;;;;;;5034291;28;20132;-85
2022/08/11 11:49:23;;;;;;;0.13;0.00;;;;;;;;;;5017379;28;20075;-87
2022/08/11 11:51:52;;;;;;;0.00;0.00;;;;;;;;;;5034496;28;20053;-88
2022/08/11 11:54:21;;;;;;;0.00;0.00;;;;;;;;;;5034074;28;20038;-87
2022/08/11 11:56:47;;;;;;;0.00;0.00;;;;;;;;;;5034191;28;20037;-86
2022/08/11 12:01:59;;;;;;;0.00;0.00;;;;;;;;;;5034116;28;20080;-87
2022/08/11 12:04:26;;;;;;;0.00;0.00;;;;;;;;;;5017543;28;20048;-88
2022/08/11 12:08:08;;;;;;;0.00;0.00;;;;;;;;;;5034056;28;20168;-87
2022/08/11 12:09:39;;;;;;;0.00;0.00;;;;;;;;;;5032849;28;20053;-87
2022/08/11 12:14:51;;;;;;;0.00;0.00;;;;;;;;;;5033937;28;20045;-87
2022/08/11 12:17:17;;;;;;;0.00;0.00;;;;;;;;;;5034266;28;20045;-87
2022/08/11 12:19:44;;;;;;;0.00;0.00;;;;;;;;;;5033494;28;20045;-85
2022/08/11 12:27:42;;;;;;;0.00;0.00;;;;;;;;;;5033666;28;20053;-89
2022/08/11 12:30:09;;;;;;;0.00;0.00;;;;;;;;;;5017080;28;20129;-86
2022/08/11 12:32:35;;;;;;;0.00;0.00;;;;;;;;;;5033469;28;20037;-87
2022/08/11 12:35:02;;;;;;;0.00;0.00;;;;;;;;;;5033008;28;20103;-86
2022/08/11 12:37:39;;;;;;;0.10;0.00;;;;;;;;;;5033402;28;20047;-88
2022/08/11 12:45:40;;;;;;;0.00;0.00;;;;;;;;;;5033135;28;20049;-88
2022/08/11 12:53:58;;;;;;;0.00;0.00;;;;;;;;;;5032856;28;20052;-87
2022/08/11 13:04:58;;;;;;;0.00;0.00;;;;;;;;;;5032948;28;20050;-87
2022/08/11 13:07:25;;;;;;;0.00;0.00;;;;;;;;;;5016365;28;20059;-87
2022/08/11 13:09:51;;;;;;;0.00;0.00;;;;;;;;;;5032837;28;20048;-85
2022/08/11 13:15:03;;;;;;;0.00;0.00;;;;;;;;;;5032468;28;20045;-86
2022/08/11 13:17:30;;;;;;;0.00;0.00;;;;;;;;;;5032599;28;20060;-87
2022/08/11 13:19:58;;;;;;;0.00;0.00;;;;;;;;;;5015772;28;20394;-87
2022/08/11 13:22:25;;;;;;;0.00;0.00;;;;;;;;;;5032415;28;20037;-87
2022/08/11 13:24:54;;;;;;;0.00;0.00;;;;;;;;;;5032438;28;20048;-89
2022/08/11 13:27:20;;;;;;;0.00;0.00;;;;;;;;;;5032066;28;20048;-88
2022/08/11 13:29:47;;;;;;;0.00;0.00;;;;;;;;;;5032389;28;20049;-88
2022/08/11 13:32:14;;;;;;;0.00;0.00;;;;;;;;;;5016027;28;20045;-87
2022/08/11 13:34:41;;;;;;;0.00;0.00;;;;;;;;;;5032002;28;20050;-86
2022/08/11 13:37:08;;;;;;;0.00;0.00;;;;;;;;;;5031938;28;20045;-88
2022/08/11 13:39:35;;;;;;;0.00;0.00;;;;;;;;;;5015756;28;20048;-88
2022/08/11 13:42:02;;;;;;;0.00;0.00;;;;;;;;;;5032000;28;20060;-86
2022/08/11 13:44:30;;;;;;;0.00;0.00;;;;;;;;;;5032143;28;20037;-87
2022/08/11 13:46:57;;;;;;;0.00;0.00;;;;;;;;;;5015443;28;20049;-88
2022/08/11 13:49:24;;;;;;;0.00;0.00;;;;;;;;;;5032175;28;20061;-87
2022/08/11 13:51:50;;;;;;;0.00;0.00;;;;;;;;;;5031951;28;20052;-87
2022/08/11 13:54:20;;;;;;;0.00;0.00;;;;;;;;;;5031790;28;20044;-86
2022/08/11 13:56:48;;;;;;;0.00;0.00;;;;;;;;;;5031722;28;20056;-86
2022/08/11 13:59:15;;;;;;;0.00;0.00;;;;;;;;;;5031715;28;20049;-86
2022/08/11 14:01:43;;;;;;;0.00;0.00;;;;;;;;;;5031573;28;20099;-85
2022/08/11 14:04:11;;;;;;;0.00;0.00;;;;;;;;;;5031615;28;20118;-87
2022/08/11 14:06:50;;;;;;;0.00;0.00;;;;;;;;;;5031615;28;20037;-87
2022/08/11 14:09:20;;;;;;;0.00;0.00;;;;;;;;;;5015438;28;20370;-86
2022/08/11 14:14:34;;;;;;;0.00;0.00;;;;;;;;;;5031573;28;20049;-86
2022/08/11 14:17:03;;;;;;;0.00;0.00;;;;;;;;;;5014750;28;20576;-87
2022/08/11 14:19:30;;;;;;;0.00;0.00;;;;;;;;;;5014995;28;20049;-86
2022/08/11 14:22:06;;;;;;;0.00;0.00;;;;;;;;;;5031407;28;20041;-86
2022/08/11 14:24:33;;;;;;;0.00;0.00;;;;;;;;;;5014016;28;20033;-86
2022/08/11 14:26:59;;;;;;;0.00;0.00;;;;;;;;;;5031063;28;20049;-86
2022/08/11 14:29:27;;;;;;;0.00;0.00;;;;;;;;;;5031302;28;20103;-86
2022/08/11 14:31:54;;;;;;;0.00;0.00;;;;;;;;;;5014312;28;20480;-87
2022/08/11 14:34:22;;;;;;;0.00;0.00;;;;;;;;;;5014863;28;20048;-86
2022/08/11 14:36:52;;;;;;;0.00;0.00;;;;;;;;;;5030321;28;20481;-86
2022/08/11 14:39:21;;;;;;;0.00;0.00;;;;;;;;;;5031372;28;20033;-87
2022/08/11 14:47:22;;;;;;;0.00;0.00;;;;;;;;;;5030658;28;20045;-86
2022/08/11 14:49:51;;;;;;;0.00;0.00;;;;;;;;;;5030673;28;20096;-86
2022/08/11 14:52:19;;;;;;;0.00;0.00;;;;;;;;;;5014332;28;20056;-87
2022/08/11 14:57:32;;;;;;;0.00;0.00;;;;;;;;;;5030752;28;20045;-86
2022/08/11 15:00:00;;;;;;;0.00;0.00;;;;;;;;;;5031244;28;20078;-87
2022/08/11 15:05:12;;;;;;;0.00;0.00;;;;;;;;;;5030956;28;20136;-87
2022/08/11 15:07:39;;;;;;;0.00;0.00;;;;;;;;;;5030599;28;20477;-87
2022/08/11 15:10:06;;;;;;;0.00;0.00;;;;;;;;;;5014300;28;20037;-86
2022/08/11 15:12:33;;;;;;;0.00;0.00;;;;;;;;;;5014244;28;20045;-86
2022/08/11 15:17:46;;;;;;;0.00;0.00;;;;;;;;;;5030456;28;20124;-86
2022/08/11 15:25:45;;;;;;;0.00;0.00;;;;;;;;;;5030570;28;20053;-85
2022/08/11 15:39:14;;;;;;;0.00;0.00;;;;;;;;;;5030446;28;20052;-87
2022/08/11 15:47:18;;;;;;;0.00;0.00;;;;;;;;;;5033968;28;20046;-87
2022/08/11 15:49:47;;;;;;;0.00;0.00;;;;;;;;;;5033901;28;20057;-86
2022/08/11 15:52:15;;;;;;;0.00;0.00;;;;;;;;;;5034128;28;20168;-87
2022/08/11 15:54:42;;;;;;;0.00;0.00;;;;;;;;;;5017334;28;20037;-86
2022/08/11 16:04:09;;;;;;;0.00;0.00;;;;;;;;;;5033635;28;20393;-86
2022/08/11 16:05:21;;;;;;;0.00;0.00;;;;;;;;;;5033870;28;20037;-85
2022/08/11 16:07:48;;;;;;;0.00;0.00;;;;;;;;;;5033601;28;20164;-86
2022/08/11 16:10:20;;;;;;;0.00;0.00;;;;;;;;;;5033722;28;20111;-86
2022/08/11 16:16:13;;;;;;;0.00;0.00;;;;;;;;;;5033614;28;20095;-86
2022/08/11 16:18:42;;;;;;;0.00;0.00;;;;;;;;;;5033526;28;20519;-89
2022/08/11 16:21:10;;;;;;;0.05;0.05;;;;;;;;;;5033723;28;20041;-86
2022/08/11 16:23:37;;;;;;;0.00;0.00;;;;;;;;;;5033270;28;20068;-85
2022/08/11 16:26:03;;;;;;;0.00;0.00;;;;;;;;;;5033285;28;20041;-85
2022/08/11 16:28:31;;;;;;;0.00;0.00;;;;;;;;;;5033317;28;20140;-86
2022/08/11 16:30:57;;;;;;;0.00;0.00;;;;;;;;;;5033367;28;20099;-85
2022/08/11 16:33:24;;;;;;;0.00;0.00;;;;;;;;;;5033145;28;20128;-86
2022/08/11 16:38:37;;;;;;;0.00;0.00;;;;;;;;;;5033076;28;20049;-87
2022/08/11 16:41:06;;;;;;;0.00;0.00;;;;;;;;;;5033330;28;20287;-87
2022/08/11 16:49:06;;;;;;;0.00;0.00;;;;;;;;;;5032808;28;20056;-86
2022/08/11 16:51:32;;;;;;;0.00;0.00;;;;;;;;;;5033130;28;20052;-86
2022/08/11 16:53:58;;;;;;;0.00;0.00;;;;;;;;;;5016380;28;20124;-85
2022/08/11 16:56:27;;;;;;;0.00;0.00;;;;;;;;;;5032439;28;20045;-85
2022/08/11 16:59:13;;;;;;;0.00;0.00;;;;;;;;;;5032719;28;20041;-85
2022/08/11 17:01:40;;;;;;;0.00;0.00;;;;;;;;;;5032901;28;20037;-86
2022/08/11 17:18:38;;;;;;;0.00;0.00;;;;;;;;;;5032604;28;20056;-86
2022/08/11 17:21:04;;;;;;;0.00;0.00;;;;;;;;;;5032653;28;20049;-85
2022/08/11 17:23:46;;;;;;;0.00;0.00;;;;;;;;;;5032241;28;20037;-86
2022/08/11 17:26:15;;;;;;;0.00;0.00;;;;;;;;;;5032479;28;20041;-86
2022/08/11 17:28:41;;;;;;;0.00;0.00;;;;;;;;;;5032357;28;20045;-85
2022/08/11 17:36:41;;;;;;;0.00;0.00;;;;;;;;;;5032298;28;20073;-86
2022/08/11 17:39:07;;;;;;;0.00;0.00;;;;;;;;;;5015276;28;20037;-86
2022/08/11 17:49:50;;;;;;;0.00;0.00;;;;;;;;;;5031638;28;20382;-85
2022/08/11 18:00:33;;;;;;;0.00;0.00;;;;;;;;;;5031648;28;20042;-86
2022/08/11 18:05:47;;;;;;;0.00;0.00;;;;;;;;;;5031499;28;20054;-86
